Time;durP1;ratioP1;P1;durP2;ratioP2;P2;SDS_P1;SDS_P2;PMS_P1;PMS_P2;Temp;Humidity;BMP_temperature;BMP_pressure;BME280_temperature;BME280_humidity;BME280_pressure;Samples;Min_cycle;Max_cycle;Signal;HPM_P1;HPM_P2
2023/03/31 00:00:20;;;;;;;7.65;2.00;;;;;;;;;;7386380;19;20003;-74
2023/03/31 00:02:45;;;;;;;6.88;2.17;;;;;;;;;;7387681;19;19999;-74
2023/03/31 00:05:16;;;;;;;8.52;2.28;;;;;;;;;;7385925;19;20352;-75
2023/03/31 00:07:42;;;;;;;7.80;2.40;;;;;;;;;;7387744;19;20290;-74
2023/03/31 00:10:09;;;;;;;10.90;2.10;;;;;;;;;;7386517;19;20023;-74
2023/03/31 00:12:35;;;;;;;11.98;2.30;;;;;;;;;;7386915;19;20002;-74
2023/03/31 00:15:00;;;;;;;5.25;1.92;;;;;;;;;;7385955;19;20009;-74
2023/03/31 00:17:26;;;;;;;6.20;1.98;;;;;;;;;;7386370;19;20537;-74
2023/03/31 00:19:52;;;;;;;8.25;1.90;;;;;;;;;;7386698;19;20002;-75
2023/03/31 00:22:20;;;;;;;11.52;2.53;;;;;;;;;;7386257;19;20055;-74
2023/03/31 00:24:46;;;;;;;5.97;2.10;;;;;;;;;;7385367;19;20015;-74
2023/03/31 00:27:12;;;;;;;6.93;1.88;;;;;;;;;;7387157;19;19999;-74
2023/03/31 00:29:40;;;;;;;11.40;2.15;;;;;;;;;;7386920;19;20337;-74
2023/03/31 00:32:06;;;;;;;12.40;2.35;;;;;;;;;;7385977;19;20014;-74
2023/03/31 00:34:32;;;;;;;9.35;1.80;;;;;;;;;;7385837;19;20010;-74
2023/03/31 00:37:01;;;;;;;7.13;1.70;;;;;;;;;;7386716;19;19998;-73
2023/03/31 00:39:32;;;;;;;6.93;2.15;;;;;;;;;;7386738;19;20009;-73
2023/03/31 00:41:58;;;;;;;8.82;2.13;;;;;;;;;;7384245;19;20010;-74
2023/03/31 00:44:24;;;;;;;6.85;2.00;;;;;;;;;;7385654;19;20006;-73
2023/03/31 00:47:01;;;;;;;13.02;2.17;;;;;;;;;;7384665;19;19999;-74
2023/03/31 00:49:31;;;;;;;9.88;2.20;;;;;;;;;;7387965;19;19998;-74
2023/03/31 00:52:26;;;;;;;4.57;1.67;;;;;;;;;;7383494;19;20099;-74
2023/03/31 00:54:56;;;;;;;8.57;2.20;;;;;;;;;;7383922;19;20440;-74
2023/03/31 00:57:24;;;;;;;5.25;1.80;;;;;;;;;;7385426;19;20007;-74
2023/03/31 00:59:54;;;;;;;10.27;2.10;;;;;;;;;;7385706;19;20515;-74
2023/03/31 01:02:24;;;;;;;7.00;2.08;;;;;;;;;;7385111;19;20003;-74
2023/03/31 01:04:53;;;;;;;6.07;2.05;;;;;;;;;;7384312;19;20023;-74
2023/03/31 01:07:34;;;;;;;13.40;2.30;;;;;;;;;;7388305;19;20007;-74
2023/03/31 01:10:03;;;;;;;6.78;2.20;;;;;;;;;;7393265;19;20011;-73
2023/03/31 01:12:31;;;;;;;8.30;2.35;;;;;;;;;;7390185;19;20014;-72
2023/03/31 01:14:58;;;;;;;8.18;2.10;;;;;;;;;;7393478;19;20480;-73
2023/03/31 01:17:23;;;;;;;10.73;2.08;;;;;;;;;;7392228;19;20026;-72
2023/03/31 01:19:55;;;;;;;6.63;2.08;;;;;;;;;;7392096;19;20008;-72
2023/03/31 01:22:39;;;;;;;8.90;2.28;;;;;;;;;;7395328;19;19998;-72
2023/03/31 01:25:46;;;;;;;7.47;2.00;;;;;;;;;;7390194;19;20086;-73
2023/03/31 01:28:59;;;;;;;12.38;2.50;;;;;;;;;;7391965;19;20009;-73
2023/03/31 01:31:39;;;;;;;7.00;2.22;;;;;;;;;;7388240;19;20481;-73
2023/03/31 01:34:26;;;;;;;7.30;2.40;;;;;;;;;;7391447;19;20003;-74
2023/03/31 01:37:33;;;;;;;5.35;1.85;;;;;;;;;;7391842;19;20431;-74
2023/03/31 01:40:08;;;;;;;8.68;2.30;;;;;;;;;;7389703;19;20045;-74
2023/03/31 01:42:38;;;;;;;6.55;2.05;;;;;;;;;;7391515;19;20425;-75
2023/03/31 01:45:19;;;;;;;8.98;2.20;;;;;;;;;;7389884;19;20002;-74
2023/03/31 01:47:56;;;;;;;8.55;2.00;;;;;;;;;;7391152;19;20002;-74
2023/03/31 01:50:51;;;;;;;9.15;2.10;;;;;;;;;;7390060;19;20032;-73
2023/03/31 01:53:29;;;;;;;9.35;2.33;;;;;;;;;;7395780;19;20002;-74
2023/03/31 01:55:57;;;;;;;10.57;2.22;;;;;;;;;;7389400;19;19999;-74
2023/03/31 01:58:31;;;;;;;9.52;2.50;;;;;;;;;;7390653;19;20006;-73
2023/03/31 02:01:04;;;;;;;9.48;2.42;;;;;;;;;;7388740;19;20661;-73
2023/03/31 02:03:34;;;;;;;4.65;2.08;;;;;;;;;;7390340;19;20006;-73
2023/03/31 02:06:09;;;;;;;6.80;2.20;;;;;;;;;;7390875;19;20304;-73
2023/03/31 02:08:42;;;;;;;7.03;1.95;;;;;;;;;;7390429;19;19998;-73
2023/03/31 02:11:08;;;;;;;10.85;2.20;;;;;;;;;;7388479;19;20500;-73
2023/03/31 02:13:36;;;;;;;6.70;2.00;;;;;;;;;;7390068;19;20032;-73
2023/03/31 02:16:07;;;;;;;11.60;1.88;;;;;;;;;;7390896;19;20010;-73
2023/03/31 02:18:37;;;;;;;8.18;2.42;;;;;;;;;;7390379;19;20468;-74
2023/03/31 02:21:04;;;;;;;10.60;2.17;;;;;;;;;;7389709;19;20026;-74
2023/03/31 02:23:31;;;;;;;10.45;2.33;;;;;;;;;;7389850;19;20003;-74
2023/03/31 02:26:11;;;;;;;8.52;2.50;;;;;;;;;;7389815;19;20032;-74
2023/03/31 02:28:37;;;;;;;9.77;2.15;;;;;;;;;;7389913;19;20006;-73
2023/03/31 02:31:16;;;;;;;5.47;1.80;;;;;;;;;;7388332;19;20014;-74
2023/03/31 02:33:41;;;;;;;8.13;2.10;;;;;;;;;;7389574;19;19995;-74
2023/03/31 02:36:07;;;;;;;6.60;2.03;;;;;;;;;;7389835;19;20483;-74
2023/03/31 02:38:38;;;;;;;6.15;1.83;;;;;;;;;;7390401;19;20002;-74
2023/03/31 02:41:04;;;;;;;9.50;2.15;;;;;;;;;;7389262;19;20006;-72
2023/03/31 02:43:29;;;;;;;8.73;2.03;;;;;;;;;;7388044;19;19998;-73
2023/03/31 02:45:54;;;;;;;8.88;2.22;;;;;;;;;;7393024;19;20022;-73
2023/03/31 02:48:22;;;;;;;9.98;2.13;;;;;;;;;;7387873;19;19998;-73
2023/03/31 02:50:58;;;;;;;6.90;2.13;;;;;;;;;;7388089;19;20011;-73
2023/03/31 02:53:38;;;;;;;9.40;2.67;;;;;;;;;;7389358;19;20464;-73
2023/03/31 02:56:33;;;;;;;9.20;2.03;;;;;;;;;;7389379;19;19998;-73
2023/03/31 02:59:37;;;;;;;9.95;2.08;;;;;;;;;;7387691;19;20023;-73
2023/03/31 03:02:05;;;;;;;5.43;1.98;;;;;;;;;;7388674;19;20065;-72
2023/03/31 03:04:40;;;;;;;9.23;2.20;;;;;;;;;;7388878;19;20031;-74
2023/03/31 03:07:31;;;;;;;6.07;2.05;;;;;;;;;;7389157;19;20027;-75
2023/03/31 03:10:22;;;;;;;9.00;1.95;;;;;;;;;;7388890;19;20023;-74
2023/03/31 03:13:06;;;;;;;;;;;;;;;;;;7394522;19;20043;-73
2023/03/31 03:15:39;;;;;;;5.38;1.75;;;;;;;;;;7385297;19;19922;-74
2023/03/31 03:18:05;;;;;;;5.22;1.73;;;;;;;;;;7389960;19;19994;-73
2023/03/31 03:20:32;;;;;;;6.05;2.00;;;;;;;;;;7392498;19;20003;-73
2023/03/31 03:22:58;;;;;;;7.10;1.85;;;;;;;;;;7388396;19;20007;-73
2023/03/31 03:25:24;;;;;;;11.70;2.05;;;;;;;;;;7386820;19;20007;-74
2023/03/31 03:27:51;;;;;;;7.50;1.80;;;;;;;;;;7387830;19;20437;-72
2023/03/31 03:30:17;;;;;;;16.20;8.15;;;;;;;;;;7385470;19;20011;-73
2023/03/31 03:32:42;;;;;;;6.82;2.65;;;;;;;;;;7387765;19;20015;-72
2023/03/31 03:35:09;;;;;;;13.10;2.67;;;;;;;;;;7386680;19;20001;-72
2023/03/31 03:37:34;;;;;;;11.52;3.33;;;;;;;;;;7388057;19;20005;-72
2023/03/31 03:40:00;;;;;;;11.20;5.00;;;;;;;;;;7387718;19;19999;-73
2023/03/31 03:42:25;;;;;;;15.02;4.40;;;;;;;;;;7386894;19;19998;-74
2023/03/31 03:44:50;;;;;;;8.18;2.20;;;;;;;;;;7386586;19;20030;-73
2023/03/31 03:47:15;;;;;;;12.20;2.38;;;;;;;;;;7387433;19;20018;-73
2023/03/31 03:49:41;;;;;;;8.27;2.08;;;;;;;;;;7386294;19;19994;-73
2023/03/31 03:52:06;;;;;;;5.03;2.00;;;;;;;;;;7387950;19;20015;-73
2023/03/31 03:54:32;;;;;;;7.75;2.83;;;;;;;;;;7384458;19;20484;-76
2023/03/31 03:56:57;;;;;;;6.63;2.55;;;;;;;;;;7387779;19;20352;-77
2023/03/31 03:59:23;;;;;;;6.25;2.17;;;;;;;;;;7387838;19;20084;-76
2023/03/31 04:01:49;;;;;;;5.53;1.98;;;;;;;;;;7388596;19;19999;-77
2023/03/31 04:04:14;;;;;;;7.97;1.90;;;;;;;;;;7389467;19;20002;-76
2023/03/31 04:06:40;;;;;;;8.23;1.90;;;;;;;;;;7389117;19;20022;-77
2023/03/31 04:09:16;;;;;;;5.93;2.10;;;;;;;;;;7387941;19;20063;-78
2023/03/31 04:11:45;;;;;;;8.68;2.10;;;;;;;;;;7386857;19;20006;-78
2023/03/31 04:14:10;;;;;;;4.93;1.50;;;;;;;;;;7388335;19;20399;-78
2023/03/31 04:16:37;;;;;;;7.47;2.13;;;;;;;;;;7388978;19;20003;-76
2023/03/31 04:19:03;;;;;;;6.57;2.13;;;;;;;;;;7388812;19;20002;-77
2023/03/31 04:21:33;;;;;;;6.03;2.00;;;;;;;;;;7387819;19;20063;-76
2023/03/31 04:24:03;;;;;;;127.25;58.00;;;;;;;;;;7386002;19;20526;-76
2023/03/31 04:26:41;;;;;;;83.70;38.53;;;;;;;;;;7388739;19;20006;-76
2023/03/31 04:29:08;;;;;;;10.68;3.35;;;;;;;;;;7387263;19;20022;-76
2023/03/31 04:31:37;;;;;;;7.18;2.67;;;;;;;;;;7383201;19;20677;-75
2023/03/31 04:34:05;;;;;;;23.55;8.82;;;;;;;;;;7391580;19;20002;-76
2023/03/31 04:36:31;;;;;;;21.48;8.98;;;;;;;;;;7389246;19;20017;-77
2023/03/31 04:38:56;;;;;;;40.08;19.05;;;;;;;;;;7390084;19;20360;-76
2023/03/31 04:41:24;;;;;;;46.55;24.00;;;;;;;;;;7390281;19;19999;-76
2023/03/31 04:43:49;;;;;;;17.65;8.93;;;;;;;;;;7398473;19;20003;-75
2023/03/31 04:46:14;;;;;;;29.00;17.05;;;;;;;;;;7395345;19;20562;-77
2023/03/31 04:48:42;;;;;;;29.13;16.23;;;;;;;;;;7396422;19;20535;-77
2023/03/31 04:51:09;;;;;;;12.38;3.67;;;;;;;;;;7394786;19;20380;-77
2023/03/31 04:53:34;;;;;;;8.52;2.47;;;;;;;;;;7398027;19;20009;-76
2023/03/31 04:56:00;;;;;;;19.13;7.00;;;;;;;;;;7397641;19;20348;-75
2023/03/31 04:58:26;;;;;;;12.02;4.78;;;;;;;;;;7395027;19;20162;-77
2023/03/31 05:00:52;;;;;;;3.53;1.33;;;;;;;;;;7327936;19;20017;-76
2023/03/31 05:03:21;;;;;;;9.43;2.90;;;;;;;;;;7397592;19;20054;-75
2023/03/31 05:05:46;;;;;;;7.90;2.28;;;;;;;;;;7396471;19;20019;-77
2023/03/31 05:08:12;;;;;;;8.73;2.08;;;;;;;;;;7393790;19;19995;-76
2023/03/31 05:10:37;;;;;;;3.83;1.70;;;;;;;;;;7393300;19;20009;-76
2023/03/31 05:13:02;;;;;;;7.25;1.67;;;;;;;;;;7395749;19;20002;-77
2023/03/31 05:15:28;;;;;;;5.90;1.58;;;;;;;;;;7391939;19;19999;-77
2023/03/31 05:17:53;;;;;;;7.97;2.08;;;;;;;;;;7393419;19;19995;-78
2023/03/31 05:20:19;;;;;;;2.92;1.60;;;;;;;;;;7396363;19;20010;-76
2023/03/31 05:22:45;;;;;;;9.25;1.80;;;;;;;;;;7395632;19;20482;-75
2023/03/31 05:25:17;;;;;;;8.15;2.15;;;;;;;;;;7396920;19;20002;-77
2023/03/31 05:27:44;;;;;;;6.63;1.80;;;;;;;;;;7395588;19;20035;-76
2023/03/31 05:30:10;;;;;;;10.43;2.45;;;;;;;;;;7393447;19;20006;-76
2023/03/31 05:32:36;;;;;;;9.55;2.10;;;;;;;;;;7397069;19;20325;-77
2023/03/31 05:35:01;;;;;;;9.55;2.47;;;;;;;;;;7395797;19;19999;-77
2023/03/31 05:37:26;;;;;;;10.55;2.50;;;;;;;;;;7394741;19;20062;-76
2023/03/31 05:39:52;;;;;;;10.15;2.58;;;;;;;;;;7392606;19;19998;-76
2023/03/31 05:42:18;;;;;;;5.85;1.98;;;;;;;;;;7396986;19;20015;-77
2023/03/31 05:44:44;;;;;;;8.90;1.98;;;;;;;;;;7393955;19;20010;-70
2023/03/31 05:47:10;;;;;;;5.47;2.53;;;;;;;;;;7328636;19;20007;-73
2023/03/31 05:49:35;;;;;;;10.75;2.25;;;;;;;;;;7395522;19;20006;-72
2023/03/31 05:52:00;;;;;;;13.35;1.98;;;;;;;;;;7391205;19;20015;-71
2023/03/31 05:54:26;;;;;;;7.47;2.17;;;;;;;;;;7394989;19;20027;-70
2023/03/31 05:56:51;;;;;;;6.18;2.03;;;;;;;;;;7396607;19;20463;-72
2023/03/31 05:59:17;;;;;;;6.15;2.08;;;;;;;;;;7396369;19;19995;-74
2023/03/31 06:01:42;;;;;;;10.35;2.85;;;;;;;;;;7392650;19;20183;-72
2023/03/31 06:04:08;;;;;;;7.25;2.60;;;;;;;;;;7393402;19;20526;-74
2023/03/31 06:06:33;;;;;;;7.63;2.80;;;;;;;;;;7394582;19;20368;-73
2023/03/31 06:08:59;;;;;;;12.32;2.85;;;;;;;;;;7396651;19;19999;-73
2023/03/31 06:11:25;;;;;;;6.20;2.72;;;;;;;;;;7392918;19;20015;-75
2023/03/31 06:13:50;;;;;;;9.25;2.72;;;;;;;;;;7394048;19;20009;-74
2023/03/31 06:16:16;;;;;;;9.38;3.00;;;;;;;;;;7392428;19;19995;-74
2023/03/31 06:18:42;;;;;;;10.07;2.40;;;;;;;;;;7392913;19;20010;-74
2023/03/31 06:21:17;;;;;;;7.45;2.08;;;;;;;;;;7395208;19;20002;-74
2023/03/31 06:23:44;;;;;;;8.70;2.20;;;;;;;;;;7393288;19;20003;-74
2023/03/31 06:26:15;;;;;;;10.38;2.25;;;;;;;;;;7393586;19;20002;-75
2023/03/31 06:28:40;;;;;;;13.75;3.20;;;;;;;;;;7394663;19;20015;-72
2023/03/31 06:31:09;;;;;;;8.27;2.20;;;;;;;;;;7395198;19;20094;-73
2023/03/31 06:33:35;;;;;;;9.18;2.78;;;;;;;;;;7393612;19;20011;-74
2023/03/31 06:36:03;;;;;;;8.30;2.58;;;;;;;;;;7392313;19;20479;-74
2023/03/31 06:38:28;;;;;;;10.50;2.72;;;;;;;;;;7393908;19;19999;-74
2023/03/31 06:40:54;;;;;;;9.70;2.30;;;;;;;;;;7393518;19;20769;-74
2023/03/31 06:43:19;;;;;;;9.35;2.28;;;;;;;;;;7390806;19;19998;-74
2023/03/31 06:45:45;;;;;;;12.52;2.55;;;;;;;;;;7390327;19;20018;-73
2023/03/31 06:48:11;;;;;;;9.45;2.50;;;;;;;;;;7392630;19;19990;-74
2023/03/31 06:50:38;;;;;;;6.90;2.33;;;;;;;;;;7392022;19;20001;-74
2023/03/31 06:53:03;;;;;;;9.57;2.70;;;;;;;;;;7394876;19;20088;-74
2023/03/31 06:55:29;;;;;;;7.68;3.17;;;;;;;;;;7389864;19;20010;-74
2023/03/31 06:57:54;;;;;;;13.55;3.05;;;;;;;;;;7391343;19;20381;-74
2023/03/31 07:00:20;;;;;;;8.93;3.97;;;;;;;;;;7392006;19;19995;-74
2023/03/31 07:02:45;;;;;;;14.30;3.60;;;;;;;;;;7393727;19;19998;-75
2023/03/31 07:05:10;;;;;;;10.57;3.58;;;;;;;;;;7367619;19;20428;-75
2023/03/31 07:07:36;;;;;;;8.02;3.38;;;;;;;;;;7390026;19;20456;-74
2023/03/31 07:10:01;;;;;;;10.75;3.67;;;;;;;;;;7391987;19;19999;-73
2023/03/31 07:12:27;;;;;;;12.35;3.90;;;;;;;;;;7392063;19;20033;-73
2023/03/31 07:14:52;;;;;;;9.80;3.35;;;;;;;;;;7391610;19;19998;-74
2023/03/31 07:17:17;;;;;;;11.05;3.90;;;;;;;;;;7389511;19;19994;-73
2023/03/31 07:19:46;;;;;;;9.60;3.92;;;;;;;;;;7391958;19;20365;-73
2023/03/31 07:22:13;;;;;;;6.75;3.45;;;;;;;;;;7392405;19;19991;-71
2023/03/31 07:24:39;;;;;;;9.73;4.10;;;;;;;;;;7392170;19;20009;-72
2023/03/31 07:27:04;;;;;;;13.43;4.63;;;;;;;;;;7382701;19;20467;-70
2023/03/31 07:29:29;;;;;;;6.88;3.47;;;;;;;;;;7385080;19;19998;-73
2023/03/31 07:31:55;;;;;;;13.18;4.45;;;;;;;;;;7384890;19;20006;-73
2023/03/31 07:34:20;;;;;;;8.32;3.08;;;;;;;;;;7387682;19;20013;-73
2023/03/31 07:36:46;;;;;;;10.75;3.90;;;;;;;;;;7385653;19;19999;-74
2023/03/31 07:39:11;;;;;;;8.27;2.88;;;;;;;;;;7385749;19;19999;-73
2023/03/31 07:41:36;;;;;;;4.85;2.35;;;;;;;;;;7385401;19;20385;-75
2023/03/31 07:44:02;;;;;;;6.10;2.42;;;;;;;;;;7387507;19;20066;-72
2023/03/31 07:46:27;;;;;;;8.50;2.67;;;;;;;;;;7385728;19;20472;-71
2023/03/31 07:48:55;;;;;;;3.22;1.85;;;;;;;;;;7386890;19;20440;-69
2023/03/31 07:51:24;;;;;;;5.72;1.92;;;;;;;;;;7386326;19;20018;-68
2023/03/31 07:53:51;;;;;;;7.95;2.33;;;;;;;;;;7386618;19;20012;-70
2023/03/31 07:56:22;;;;;;;3.70;1.70;;;;;;;;;;7385772;19;20018;-69
2023/03/31 07:58:47;;;;;;;3.63;1.60;;;;;;;;;;7384604;19;20010;-70
2023/03/31 08:01:17;;;;;;;4.75;1.63;;;;;;;;;;7397156;19;20027;-72
2023/03/31 08:03:44;;;;;;;4.30;2.03;;;;;;;;;;7402244;19;20007;-72
2023/03/31 08:06:09;;;;;;;3.83;1.77;;;;;;;;;;7394665;19;20023;-70
2023/03/31 08:08:37;;;;;;;4.57;2.08;;;;;;;;;;7385963;19;20083;-70
2023/03/31 08:11:02;;;;;;;4.95;1.70;;;;;;;;;;7387132;19;20006;-70
2023/03/31 08:13:28;;;;;;;5.78;1.60;;;;;;;;;;7385722;19;20389;-73
2023/03/31 08:15:53;;;;;;;5.47;1.85;;;;;;;;;;7385332;19;20013;-71
2023/03/31 08:18:18;;;;;;;4.13;1.42;;;;;;;;;;7388704;19;20003;-70
2023/03/31 08:20:44;;;;;;;3.63;1.83;;;;;;;;;;7386122;19;20014;-72
2023/03/31 08:23:10;;;;;;;3.70;1.80;;;;;;;;;;7385671;19;20476;-71
2023/03/31 08:25:37;;;;;;;4.32;2.00;;;;;;;;;;7384806;19;20460;-71
2023/03/31 08:28:02;;;;;;;4.75;1.85;;;;;;;;;;7386676;19;20078;-71
2023/03/31 08:30:28;;;;;;;5.05;2.00;;;;;;;;;;7384829;19;20497;-72
2023/03/31 08:32:53;;;;;;;8.82;2.00;;;;;;;;;;7384461;19;20002;-70
2023/03/31 08:35:18;;;;;;;7.72;2.30;;;;;;;;;;7384429;19;20002;-70
2023/03/31 08:37:44;;;;;;;5.30;2.20;;;;;;;;;;7386515;19;20070;-72
2023/03/31 08:40:19;;;;;;;5.93;2.15;;;;;;;;;;7389488;19;20063;-71
2023/03/31 08:42:49;;;;;;;7.82;2.20;;;;;;;;;;7389550;19;20031;-69
2023/03/31 08:45:29;;;;;;;9.10;2.30;;;;;;;;;;7387239;19;20002;-69
2023/03/31 08:48:01;;;;;;;6.00;2.33;;;;;;;;;;7390193;19;20419;-69
2023/03/31 08:50:30;;;;;;;6.80;2.33;;;;;;;;;;7389042;19;20030;-69
2023/03/31 08:53:26;;;;;;;3.92;1.80;;;;;;;;;;7389961;19;20341;-75
2023/03/31 08:55:54;;;;;;;3.78;1.90;;;;;;;;;;7386802;19;20617;-76
2023/03/31 08:58:40;;;;;;;4.72;2.03;;;;;;;;;;7389447;19;20002;-72
2023/03/31 09:01:23;;;;;;;7.15;1.80;;;;;;;;;;7389656;19;20112;-72
2023/03/31 09:04:03;;;;;;;5.13;1.60;;;;;;;;;;7388049;19;20042;-71
2023/03/31 09:06:37;;;;;;;4.10;2.00;;;;;;;;;;7389119;19;20003;-72
2023/03/31 09:09:08;;;;;;;5.05;1.80;;;;;;;;;;7390009;19;20010;-71
2023/03/31 09:11:41;;;;;;;6.78;1.98;;;;;;;;;;7386886;19;20006;-72
2023/03/31 09:14:28;;;;;;;5.28;2.55;;;;;;;;;;7387927;19;20007;-72
2023/03/31 09:17:03;;;;;;;5.63;2.15;;;;;;;;;;7389868;19;20013;-73
2023/03/31 09:19:39;;;;;;;7.15;2.20;;;;;;;;;;7389667;19;20019;-73
2023/03/31 09:22:13;;;;;;;4.72;2.30;;;;;;;;;;7388937;19;20456;-74
2023/03/31 09:24:48;;;;;;;4.88;2.20;;;;;;;;;;7385685;19;20019;-73
2023/03/31 09:27:14;;;;;;;5.63;2.33;;;;;;;;;;7390308;19;19999;-73
2023/03/31 09:29:51;;;;;;;5.97;2.15;;;;;;;;;;7393759;19;20625;-72
2023/03/31 09:32:21;;;;;;;8.93;2.60;;;;;;;;;;7392717;19;20080;-71
2023/03/31 09:34:51;;;;;;;6.30;1.95;;;;;;;;;;7394826;19;20011;-72
2023/03/31 09:37:17;;;;;;;9.68;2.67;;;;;;;;;;7396217;19;20410;-72
2023/03/31 09:39:42;;;;;;;7.70;2.05;;;;;;;;;;7394223;19;20002;-74
2023/03/31 09:42:12;;;;;;;8.80;2.13;;;;;;;;;;7394491;19;19998;-74
2023/03/31 09:44:43;;;;;;;9.98;2.33;;;;;;;;;;7395896;19;20002;-74
2023/03/31 09:47:37;;;;;;;10.13;2.28;;;;;;;;;;7397048;19;20030;-73
2023/03/31 09:50:05;;;;;;;9.07;2.20;;;;;;;;;;7393200;19;20007;-73
2023/03/31 09:52:54;;;;;;;11.23;2.42;;;;;;;;;;7387552;19;19994;-72
2023/03/31 09:55:42;;;;;;;7.78;2.15;;;;;;;;;;7392044;19;19994;-76
2023/03/31 09:58:12;;;;;;;12.95;2.58;;;;;;;;;;7393923;19;20075;-76
2023/03/31 10:00:41;;;;;;;10.20;2.40;;;;;;;;;;7394071;19;20007;-76
2023/03/31 10:03:06;;;;;;;8.95;2.42;;;;;;;;;;7396639;19;20030;-75
2023/03/31 10:05:40;;;;;;;12.30;2.55;;;;;;;;;;7392229;19;19998;-75
2023/03/31 10:08:30;;;;;;;10.82;2.30;;;;;;;;;;7394635;19;20464;-75
2023/03/31 10:11:02;;;;;;;10.25;2.72;;;;;;;;;;7393803;19;20027;-76
2023/03/31 10:13:57;;;;;;;9.13;2.60;;;;;;;;;;7397054;19;19994;-76
2023/03/31 10:16:32;;;;;;;5.72;2.08;;;;;;;;;;7393876;19;20015;-74
2023/03/31 10:19:21;;;;;;;7.15;1.55;;;;;;;;;;7395319;19;20003;-73
2023/03/31 10:21:55;;;;;;;3.88;1.30;;;;;;;;;;7393183;19;20361;-72
2023/03/31 10:24:20;;;;;;;3.13;1.10;;;;;;;;;;7393560;19;19998;-72
2023/03/31 10:26:52;;;;;;;2.28;0.80;;;;;;;;;;7394676;19;20009;-72
2023/03/31 10:29:30;;;;;;;3.10;1.20;;;;;;;;;;7392660;19;19998;-72
2023/03/31 10:32:09;;;;;;;5.47;0.95;;;;;;;;;;7390690;19;19999;-71
2023/03/31 10:34:39;;;;;;;2.70;1.30;;;;;;;;;;7394158;19;20335;-70
2023/03/31 10:37:06;;;;;;;15.33;8.83;;;;;;;;;;7395643;19;20003;-70
2023/03/31 10:39:32;;;;;;;5.22;2.00;;;;;;;;;;7389804;19;20002;-70
2023/03/31 10:41:58;;;;;;;5.28;1.50;;;;;;;;;;7392058;19;20009;-71
2023/03/31 10:44:36;;;;;;;4.10;1.55;;;;;;;;;;7393354;19;19998;-73
2023/03/31 10:47:20;;;;;;;1.83;0.90;;;;;;;;;;7394140;19;20487;-71
2023/03/31 10:49:49;;;;;;;4.35;1.20;;;;;;;;;;7389826;19;20034;-72
2023/03/31 10:52:21;;;;;;;2.08;1.10;;;;;;;;;;7388556;19;20389;-72
2023/03/31 10:54:53;;;;;;;4.30;1.50;;;;;;;;;;7390620;19;19995;-71
2023/03/31 10:57:35;;;;;;;5.85;1.45;;;;;;;;;;7393806;19;20464;-72
2023/03/31 11:00:32;;;;;;;4.63;1.90;;;;;;;;;;7390192;19;20002;-71
2023/03/31 11:03:15;;;;;;;5.65;1.60;;;;;;;;;;7394242;19;20381;-71
2023/03/31 11:06:02;;;;;;;5.28;1.92;;;;;;;;;;7387927;19;20002;-71
2023/03/31 11:08:56;;;;;;;7.60;2.30;;;;;;;;;;7392770;19;20010;-72
2023/03/31 11:11:40;;;;;;;9.75;2.00;;;;;;;;;;7389191;19;20107;-72
2023/03/31 11:14:41;;;;;;;9.95;2.20;;;;;;;;;;7391374;19;19994;-72
2023/03/31 11:17:45;;;;;;;8.32;2.42;;;;;;;;;;7392797;19;20006;-73
2023/03/31 11:20:50;;;;;;;9.32;2.55;;;;;;;;;;7386458;19;19995;-72
2023/03/31 11:23:30;;;;;;;8.77;2.05;;;;;;;;;;7389397;19;20305;-71
2023/03/31 11:26:04;;;;;;;9.73;2.05;;;;;;;;;;7389396;19;20005;-72
2023/03/31 11:28:49;;;;;;;8.77;2.30;;;;;;;;;;7389685;19;20263;-73
2023/03/31 11:31:29;;;;;;;6.95;2.22;;;;;;;;;;7391762;19;19998;-72
2023/03/31 11:34:28;;;;;;;4.43;1.67;;;;;;;;;;7392127;19;20028;-71
2023/03/31 11:37:20;;;;;;;13.07;2.55;;;;;;;;;;7391595;19;20033;-71
2023/03/31 11:40:13;;;;;;;13.63;2.95;;;;;;;;;;7388843;19;20421;-72
2023/03/31 11:43:05;;;;;;;12.90;2.80;;;;;;;;;;7392648;19;20416;-71
2023/03/31 11:45:36;;;;;;;13.00;2.40;;;;;;;;;;7387334;19;19998;-72
2023/03/31 11:48:10;;;;;;;10.95;2.40;;;;;;;;;;7390959;19;20006;-72
2023/03/31 11:50:38;;;;;;;10.52;2.40;;;;;;;;;;7389096;19;19998;-73
2023/03/31 11:53:20;;;;;;;11.57;2.80;;;;;;;;;;7392337;19;20493;-73
2023/03/31 11:55:49;;;;;;;8.43;2.28;;;;;;;;;;7389474;19;20006;-71
2023/03/31 11:58:21;;;;;;;10.68;2.17;;;;;;;;;;7385842;19;19999;-72
2023/03/31 12:00:49;;;;;;;12.57;2.95;;;;;;;;;;7387920;19;20127;-72
2023/03/31 12:03:20;;;;;;;7.32;1.75;;;;;;;;;;7392437;19;19998;-72
2023/03/31 12:05:57;;;;;;;10.00;2.20;;;;;;;;;;7388069;19;20003;-72
2023/03/31 12:08:29;;;;;;;10.48;2.15;;;;;;;;;;7388768;19;19995;-71
2023/03/31 12:11:03;;;;;;;11.00;2.15;;;;;;;;;;7389345;19;20002;-72
2023/03/31 12:13:44;;;;;;;10.20;2.13;;;;;;;;;;7388873;19;20015;-73
2023/03/31 12:16:19;;;;;;;;;;;;;;;;;;7390264;19;20361;-72
2023/03/31 12:18:54;;;;;;;4.80;1.40;;;;;;;;;;7391654;19;20339;-72
2023/03/31 12:21:22;;;;;;;5.95;1.48;;;;;;;;;;7388135;19;20579;-72
2023/03/31 12:23:48;;;;;;;3.50;1.33;;;;;;;;;;7388492;19;20023;-71
2023/03/31 12:26:35;;;;;;;5.63;1.38;;;;;;;;;;7390538;19;19995;-73
2023/03/31 12:29:13;;;;;;;5.78;1.52;;;;;;;;;;7390724;19;19998;-70
2023/03/31 12:31:41;;;;;;;4.38;1.25;;;;;;;;;;7283413;19;19995;-71
2023/03/31 12:34:12;;;;;;;6.75;1.58;;;;;;;;;;7389937;19;20022;-71
2023/03/31 12:36:50;;;;;;;10.75;1.77;;;;;;;;;;7389758;19;20003;-71
2023/03/31 12:39:42;;;;;;;4.80;1.40;;;;;;;;;;7391294;19;19998;-70
2023/03/31 12:42:14;;;;;;;11.50;1.67;;;;;;;;;;7391189;19;20364;-70
2023/03/31 12:45:16;;;;;;;6.53;1.80;;;;;;;;;;7390889;19;20008;-70
2023/03/31 12:48:07;;;;;;;5.55;1.48;;;;;;;;;;7387230;19;19998;-71
2023/03/31 12:50:35;;;;;;;5.72;1.85;;;;;;;;;;7390086;19;19987;-71
2023/03/31 12:53:37;;;;;;;8.90;1.88;;;;;;;;;;7390905;19;20443;-72
2023/03/31 12:56:02;;;;;;;5.00;1.67;;;;;;;;;;7387881;19;20010;-72
2023/03/31 12:58:32;;;;;;;6.70;1.80;;;;;;;;;;7390947;19;19999;-71
2023/03/31 13:01:17;;;;;;;8.73;1.40;;;;;;;;;;7388748;19;20481;-71
2023/03/31 13:03:51;;;;;;;6.32;1.42;;;;;;;;;;7394540;19;20383;-71
2023/03/31 13:06:26;;;;;;;4.63;1.45;;;;;;;;;;7392233;19;19995;-70
2023/03/31 13:09:04;;;;;;;3.00;1.02;;;;;;;;;;7394395;19;19995;-72
2023/03/31 13:11:34;;;;;;;2.10;0.90;;;;;;;;;;7392118;19;19999;-71
2023/03/31 13:14:01;;;;;;;6.37;1.03;;;;;;;;;;7394869;19;20003;-73
2023/03/31 13:16:32;;;;;;;2.22;1.25;;;;;;;;;;7393977;19;20219;-72
2023/03/31 13:18:57;;;;;;;4.28;0.82;;;;;;;;;;7393907;19;19994;-72
2023/03/31 13:21:24;;;;;;;2.35;0.73;;;;;;;;;;7394394;19;20007;-70
2023/03/31 13:23:50;;;;;;;1.35;0.52;;;;;;;;;;7394091;19;20019;-71
2023/03/31 13:26:39;;;;;;;1.38;0.43;;;;;;;;;;7389505;19;20484;-72
2023/03/31 13:29:14;;;;;;;3.17;0.75;;;;;;;;;;7393199;19;19998;-71
2023/03/31 13:31:58;;;;;;;2.22;0.65;;;;;;;;;;7388205;19;20040;-71
2023/03/31 13:34:24;;;;;;;1.50;0.63;;;;;;;;;;7390331;19;20014;-71
2023/03/31 13:37:16;;;;;;;0.95;0.60;;;;;;;;;;7397569;19;19998;-67
2023/03/31 13:40:06;;;;;;;1.17;0.50;;;;;;;;;;7392408;19;20484;-72
2023/03/31 13:42:40;;;;;;;1.95;0.52;;;;;;;;;;7390413;19;20010;-71
2023/03/31 13:45:06;;;;;;;2.75;0.60;;;;;;;;;;7394027;19;20002;-71
2023/03/31 13:48:01;;;;;;;1.63;0.75;;;;;;;;;;7380282;19;20046;-72
2023/03/31 13:50:54;;;;;;;3.80;0.82;;;;;;;;;;7385945;19;20005;-72
2023/03/31 13:53:23;;;;;;;2.55;0.88;;;;;;;;;;7388858;19;19999;-72
2023/03/31 13:56:07;;;;;;;1.02;0.77;;;;;;;;;;7391982;19;20066;-71
2023/03/31 13:59:10;;;;;;;5.78;1.00;;;;;;;;;;7389179;19;20010;-73
2023/03/31 14:02:06;;;;;;;2.33;0.82;;;;;;;;;;7386994;19;20039;-74
2023/03/31 14:04:40;;;;;;;3.00;1.17;;;;;;;;;;7390141;19;20003;-72
2023/03/31 14:07:52;;;;;;;3.10;1.23;;;;;;;;;;7389759;19;20459;-72
2023/03/31 14:10:26;;;;;;;3.90;0.95;;;;;;;;;;7388605;19;20006;-72
2023/03/31 14:12:51;;;;;;;2.33;0.80;;;;;;;;;;7389415;19;20116;-72
2023/03/31 14:15:20;;;;;;;5.13;1.40;;;;;;;;;;7387641;19;20591;-76
2023/03/31 14:17:46;;;;;;;3.40;1.10;;;;;;;;;;7390956;19;19998;-73
2023/03/31 14:20:37;;;;;;;3.38;1.30;;;;;;;;;;7390084;19;20254;-75
2023/03/31 14:23:35;;;;;;;2.35;1.00;;;;;;;;;;7388868;19;20003;-74
2023/03/31 14:26:07;;;;;;;4.93;1.35;;;;;;;;;;7389595;19;20019;-74
2023/03/31 14:28:57;;;;;;;3.85;1.00;;;;;;;;;;7388503;19;20066;-74
2023/03/31 14:31:36;;;;;;;5.05;1.20;;;;;;;;;;7387583;19;20016;-74
2023/03/31 14:34:41;;;;;;;4.82;1.35;;;;;;;;;;7387469;19;20011;-71
2023/03/31 14:37:12;;;;;;;6.22;1.13;;;;;;;;;;7389171;19;20003;-72
2023/03/31 14:39:42;;;;;;;;;;;;;;;;;;7389531;19;20436;-73
2023/03/31 14:42:13;;;;;;;5.18;1.17;;;;;;;;;;7385765;19;19939;-73
2023/03/31 14:44:41;;;;;;;4.25;1.30;;;;;;;;;;7385323;19;19998;-72
2023/03/31 14:47:13;;;;;;;5.00;1.65;;;;;;;;;;7387880;19;20002;-72
2023/03/31 14:49:38;;;;;;;7.38;1.52;;;;;;;;;;7390976;19;20073;-72
2023/03/31 14:52:15;;;;;;;7.85;1.67;;;;;;;;;;7388560;19;20015;-71
2023/03/31 14:54:42;;;;;;;6.95;1.85;;;;;;;;;;7388264;19;20567;-73
2023/03/31 14:57:12;;;;;;;5.03;1.33;;;;;;;;;;7390396;19;20030;-72
2023/03/31 14:59:37;;;;;;;4.00;1.00;;;;;;;;;;7390109;19;20002;-71
2023/03/31 15:02:04;;;;;;;3.92;0.98;;;;;;;;;;7394203;19;20013;-71
2023/03/31 15:04:37;;;;;;;3.38;0.80;;;;;;;;;;7389908;19;20002;-71
2023/03/31 15:07:03;;;;;;;2.72;1.00;;;;;;;;;;7390146;19;20313;-71
2023/03/31 15:09:32;;;;;;;3.00;0.90;;;;;;;;;;7390914;19;20015;-71
2023/03/31 15:12:00;;;;;;;7.50;1.35;;;;;;;;;;7388361;19;19998;-71